Lauritzen Yacht Harbor
Updated WEATHER every hour; Delta WATER and tide conditions; live TOWER CAM;
The FISHING report with PHOTOGRAPHS; harbor NEWS Items; before you get UNDERWAY ;
OTHER points of interest; WHO are we? WHAT can we provide? WHERE are we?

24 Hour Weather Archive

                   Temp   Wind   Hum   Dew   Wind                            
   Date    Time    Out   Chill   Out   Pt.  Speed    Hi    Dir   Rain   Bar  
 7/09/17  12:00a   73.0   69.9    --     --   8.0   15.0     N   0.00  29.946
 7/09/17   1:00a   71.3   70.2    --     --   5.0   14.0     N   0.00  29.936
 7/09/17   2:00a   68.7   64.1    --     --   9.0   17.0     N   0.00  29.939
 7/09/17   3:00a   65.4   61.1    --     --   8.0   16.0     N   0.00  29.937
 7/09/17   4:00a   63.3   56.6    --     --  10.0   17.0     N   0.00  29.935
 7/09/17   5:00a   62.4   56.5    --     --   9.0   18.0     N   0.00  29.935
 7/09/17   6:00a   62.5   57.7    --     --   8.0   16.0     N   0.00  29.957
 7/09/17   7:00a   62.7   56.9    --     --   9.0   16.0     N   0.00  29.971
 7/09/17   8:00a   64.2   58.7    --     --   9.0   17.0     N   0.00  29.985
 7/09/17   9:00a   66.1   60.1    --     --  10.0   19.0     N   0.00  29.987
 7/09/17  10:00a   70.2   65.9    --     --   9.0   17.0     N   0.00  29.989
 7/09/17  11:00a   74.1   70.6    --     --   9.0   15.0    NW   0.00  29.985
 7/09/17  12:00p   78.6   76.9    --     --   7.0   12.0    NW   0.00  29.979
 7/09/17   1:00p   81.8   80.2    --     --   8.0   14.0    NW   0.00  29.978
 7/09/17   2:00p   85.0   83.7    --     --   9.0   17.0    NW   0.00  29.957
 7/09/17   3:00p   86.9   86.0    --     --   9.0   17.0    NW   0.00  29.924
 7/09/17   4:00p   88.6   87.9    --     --  10.0   18.0    NW   0.00  29.910
 7/09/17   5:00p   92.0   92.0    --     --  11.0   20.0    NW   0.00  29.888
 7/09/17   6:00p   92.4   92.4    --     --  11.0   20.0    NW   0.00  29.875
 7/09/17   7:00p   89.7   89.2    --     --  12.0   21.0    NW   0.00  29.876
 7/09/17   8:00p   83.8   81.7    --     --  12.0   21.0    NW   0.00  29.883
 7/09/17   9:00p   78.5   76.8    --     --   7.0   16.0     W   0.00  29.892
 7/09/17  10:00p   75.1   73.6    --     --   6.0   12.0     W   0.00  29.908
 7/09/17  11:00p   72.3   69.1    --     --   8.0   14.0   WNW   0.00  29.912
 7/09/17  12:00p   68.6   64.8    --     --   8.0   17.0     N   0.00  29.909
 7/10/17  12:00a   68.6   64.8    --     --   8.0   17.0     N   0.00  29.909
 7/10/17   1:00a   66.9   61.9    --     --   9.0   18.0     N   0.00  29.914
 7/10/17   2:00a   65.8   60.6    --     --   9.0   17.0   NNW   0.00  29.919
 7/10/17   3:00a   64.9   59.5    --     --   9.0   19.0   NNW   0.00  29.916
 7/10/17   4:00a   64.3   59.8    --     --   8.0   16.0     N   0.00  29.910
 7/10/17   5:00a   63.7   59.1    --     --   8.0   18.0     N   0.00  29.917
 7/10/17   6:00a   62.7   57.9    --     --   8.0   16.0     N   0.00  29.922
 7/10/17   7:00a   64.3   59.8    --     --   8.0   15.0     W   0.00  29.947
 7/10/17   8:00a   67.3   63.3    --     --   8.0   15.0     N   0.00  29.960
 7/10/17   9:00a   70.8   66.6    --     --   9.0   17.0     N   0.00  29.956
 7/10/17  10:00a   72.4   67.9    --     --  10.0   16.0     N   0.00  29.963


Send questions or comments to:
Some of the material in this website is copyrighted © by Lauritzen Yacht Harbor and may not be used by others without our specific permission.
All rights are reserved. iPhone friendly. Viewed best with Mozilla Firefox